Time;durP1;ratioP1;P1;durP2;ratioP2;P2;SDS_P1;SDS_P2;PMS_P1;PMS_P2;Temp;Humidity;BMP_temperature;BMP_pressure;BME280_temperature;BME280_humidity;BME280_pressure;Samples;Min_cycle;Max_cycle;Signal;HPM_P1;HPM_P2
2020/12/22 07:05:47;;;;;;;1999.90;999.90;;;;;;;-7.78;88.47;102693.55;1878060;75;28307;-65
2020/12/22 07:08:17;;;;;;;1999.90;999.90;;;;;;;-7.90;88.15;102696.83;1850233;76;20901;-66
2020/12/22 07:10:46;;;;;;;1999.90;999.90;;;;;;;-7.97;88.14;102694.33;1825982;77;21428;-66
2020/12/22 07:13:16;;;;;;;1999.90;999.90;;;;;;;-7.95;88.43;102696.39;1789512;79;21139;-66
2020/12/22 07:15:49;;;;;;;1999.90;999.90;;;;;;;-7.94;88.37;102685.99;1777413;80;21561;-67
2020/12/22 07:18:25;;;;;;;1999.90;999.90;;;;;;;-7.96;88.24;102683.44;1780195;80;21499;-66
2020/12/22 07:20:53;;;;;;;1999.90;999.90;;;;;;;-7.97;88.13;102692.98;1782076;80;20967;-67
2020/12/22 07:23:21;;;;;;;1999.90;999.90;;;;;;;-7.99;88.06;102693.12;1780113;80;21348;-68
2020/12/22 07:25:49;;;;;;;1999.90;999.90;;;;;;;-8.02;87.99;102694.73;1778866;80;21022;-65
2020/12/22 07:28:17;;;;;;;1999.90;999.90;;;;;;;-8.01;88.07;102692.89;1724733;80;21013;-66
2020/12/22 07:30:45;;;;;;;1999.90;999.90;;;;;;;-8.04;87.82;102691.33;1777414;80;21114;-66
2020/12/22 07:33:13;;;;;;;1999.90;999.90;;;;;;;-8.06;87.68;102694.64;1775067;80;21005;-67
2020/12/22 07:35:41;;;;;;;1999.90;999.90;;;;;;;-8.08;87.67;102689.90;1777065;80;22257;-67
2020/12/22 07:38:10;;;;;;;1999.90;999.90;;;;;;;-8.08;87.62;102689.05;1780124;80;21562;-68
2020/12/22 07:40:40;;;;;;;1999.90;999.90;;;;;;;-8.15;87.55;102692.27;1777239;80;21032;-69
2020/12/22 07:43:12;;;;;;;1999.90;999.90;;;;;;;-8.16;87.86;102688.38;1780569;80;21633;-68
2020/12/22 07:45:51;;;;;;;1999.90;999.90;;;;;;;-8.08;87.96;102694.42;1883500;75;28206;-72
2020/12/22 07:48:19;;;;;;;1999.90;999.90;;;;;;;-8.12;87.68;102687.97;1849931;77;20890;-69
2020/12/22 07:50:53;;;;;;;1999.90;999.90;;;;;;;-8.19;87.40;102692.67;1851916;77;21440;-70
2020/12/22 07:53:21;;;;;;;1999.90;999.90;;;;;;;-8.22;87.76;102684.39;1855450;77;21130;-69
2020/12/22 07:55:49;;;;;;;1999.90;999.90;;;;;;;-8.19;87.78;102682.78;1850342;77;20989;-71
2020/12/22 07:58:17;;;;;;;1999.90;999.90;;;;;;;-8.14;87.88;102687.26;1856777;77;21577;-70
2020/12/22 08:00:44;;;;;;;1999.90;999.90;;;;;;;-8.12;87.77;102684.44;1849240;77;21525;-69
2020/12/22 08:03:16;;;;;;;1999.90;999.90;;;;;;;-8.13;87.67;102678.21;1854249;77;21422;-67
2020/12/22 08:06:00;;;;;;;1999.90;999.90;;;;;;;-8.13;87.51;102676.88;1846492;77;20977;-63
2020/12/22 08:08:28;;;;;;;1999.90;999.90;;;;;;;-8.11;87.41;102668.67;1854218;77;20956;-66
2020/12/22 08:10:56;;;;;;;1999.90;999.90;;;;;;;-8.26;86.75;102668.19;1851424;77;21099;-64
2020/12/22 08:13:26;;;;;;;1999.90;999.90;;;;;;;-8.38;87.05;102665.26;1848921;77;21103;-70
2020/12/22 08:15:54;;;;;;;1999.90;999.90;;;;;;;-8.37;87.70;102657.56;1845137;77;21525;-65
2020/12/22 08:18:22;;;;;;;1999.90;999.90;;;;;;;-8.33;87.86;102654.96;1854556;77;21123;-68
2020/12/22 08:20:50;;;;;;;1999.90;999.90;;;;;;;-8.23;88.02;102662.55;1854167;77;20988;-62
2020/12/22 08:23:18;;;;;;;1999.90;999.90;;;;;;;-8.16;87.78;102654.80;1786529;80;20941;-61
2020/12/22 08:25:46;;;;;;;1999.90;999.90;;;;;;;-8.16;87.20;102652.95;1809390;78;21079;-61
2020/12/22 08:28:25;;;;;;;1999.90;999.90;;;;;;;-8.17;86.73;102656.63;1789080;79;21370;-70
2020/12/22 08:30:54;;;;;;;1999.90;999.90;;;;;;;-8.19;86.54;102651.89;1806328;78;20958;-69
2020/12/22 08:33:22;;;;;;;1999.90;999.90;;;;;;;-8.17;86.52;102645.88;1789466;79;21559;-63
2020/12/22 08:35:51;;;;;;;1999.90;999.90;;;;;;;-8.14;86.71;102642.92;1793036;78;21569;-63
2020/12/22 08:38:26;;;;;;;1999.90;999.90;;;;;;;-8.12;86.71;102640.10;1795368;79;21585;-69
2020/12/22 08:40:55;;;;;;;1999.90;999.90;;;;;;;-8.11;86.44;102633.75;1796278;79;21252;-70
2020/12/22 08:43:24;;;;;;;1999.90;999.90;;;;;;;-8.13;86.01;102631.69;1784290;80;21174;-67
2020/12/22 08:45:52;;;;;;;1999.90;999.90;;;;;;;-8.14;86.14;102630.84;1771688;79;20985;-67
2020/12/22 08:48:20;;;;;;;1999.90;999.90;;;;;;;-8.12;86.20;102631.55;1769575;80;21687;-67
2020/12/22 08:50:52;;;;;;;1999.90;999.90;;;;;;;-8.13;86.12;102633.03;1773269;80;21102;-66
2020/12/22 08:53:21;;;;;;;1999.90;999.90;;;;;;;-8.13;85.92;102634.38;1796135;79;21572;-66
2020/12/22 08:55:49;;;;;;;1999.90;999.90;;;;;;;-8.18;85.60;102636.13;1793232;79;21106;-70
2020/12/22 08:58:17;;;;;;;1999.90;999.90;;;;;;;-8.22;85.62;102629.81;1777739;80;21023;-67
2020/12/22 09:00:45;;;;;;;1999.90;999.90;;;;;;;-8.25;85.20;102632.28;1775924;80;21610;-67
2020/12/22 09:03:13;;;;;;;1999.90;999.90;;;;;;;-8.28;84.99;102628.52;1788603;79;20985;-70
2020/12/22 09:05:46;;;;;;;1999.90;999.90;;;;;;;-8.25;85.20;102624.22;1773445;80;21430;-69
2020/12/22 09:08:21;;;;;;;1999.90;999.90;;;;;;;-8.10;85.48;102619.33;1876328;75;28509;-69
2020/12/22 09:10:48;;;;;;;1999.90;999.90;;;;;;;-8.10;85.21;102617.98;1854870;77;20956;-69
2020/12/22 09:13:16;;;;;;;1999.90;999.90;;;;;;;-8.06;85.14;102617.21;1789431;80;21365;-69
2020/12/22 09:15:54;;;;;;;1999.90;999.90;;;;;;;-8.03;85.02;102611.56;1808198;78;21008;-65
2020/12/22 09:18:22;;;;;;;1999.90;999.90;;;;;;;-7.99;84.93;102606.27;1785837;79;20977;-66
2020/12/22 09:21:04;;;;;;;1999.90;999.90;;;;;;;-7.99;84.38;102608.47;1804057;78;21104;-69
2020/12/22 09:23:45;;;;;;;1999.90;999.90;;;;;;;-7.95;84.08;102609.04;1817826;76;28550;-70
2020/12/22 09:26:12;;;;;;;;;;;;;;;-7.98;84.06;102602.59;1791431;79;21503;-68
2020/12/22 09:28:40;;;;;;;1999.90;999.90;;;;;;;-7.96;84.10;102597.94;1789024;79;21374;-68
2020/12/22 09:31:09;;;;;;;1999.90;999.90;;;;;;;-7.96;84.05;102595.25;1797488;79;20986;-71
2020/12/22 09:33:37;;;;;;;1999.90;999.90;;;;;;;-7.97;83.93;102593.05;1791221;78;20972;-68
2020/12/22 09:36:10;;;;;;;1999.90;999.90;;;;;;;-7.95;83.59;102588.89;1799548;79;20988;-71
2020/12/22 09:38:38;;;;;;;1999.90;999.90;;;;;;;-7.99;83.02;102584.77;1790674;79;21498;-71
2020/12/22 09:41:05;;;;;;;1999.90;999.90;;;;;;;-8.00;82.89;102586.61;1804579;79;21432;-71
2020/12/22 09:43:34;;;;;;;1999.90;999.90;;;;;;;-7.98;82.87;102575.72;1801896;79;20977;-70
2020/12/22 09:46:03;;;;;;;1999.90;999.90;;;;;;;-7.98;82.95;102577.06;1789610;78;21115;-71
2020/12/22 09:48:31;;;;;;;1999.90;999.90;;;;;;;-7.93;82.99;102568.95;1752897;79;21545;-70
2020/12/22 09:50:59;;;;;;;1999.90;999.90;;;;;;;-7.88;82.95;102566.69;1791955;79;21118;-71
2020/12/22 09:53:26;;;;;;;1999.90;999.90;;;;;;;-7.83;82.90;102563.59;1789849;79;21348;-71
2020/12/22 09:55:54;;;;;;;1999.90;999.90;;;;;;;-7.80;82.28;102556.59;1805763;79;21010;-69
2020/12/22 09:58:24;;;;;;;1999.90;999.90;;;;;;;-7.84;82.20;102550.64;1801519;79;21307;-68
2020/12/22 10:00:51;;;;;;;1999.90;999.90;;;;;;;-7.87;81.79;102543.35;1802980;79;21113;-69
2020/12/22 10:03:19;;;;;;;1999.90;999.90;;;;;;;-7.92;81.83;102541.58;1798886;79;20949;-68
2020/12/22 10:05:48;;;;;;;1999.90;999.90;;;;;;;-7.88;82.21;102539.81;1797271;79;22242;-70
2020/12/22 10:08:16;;;;;;;1999.90;999.90;;;;;;;-7.84;81.87;102537.20;1790473;79;20969;-69
2020/12/22 10:10:44;;;;;;;1999.90;999.90;;;;;;;-7.81;81.93;102537.41;1796771;79;20988;-70
2020/12/22 10:13:12;;;;;;;1999.90;999.90;;;;;;;-7.80;81.41;102525.17;1804120;79;21128;-71
2020/12/22 10:15:40;;;;;;;1999.90;999.90;;;;;;;-7.78;81.62;102527.73;1794067;79;21097;-71
2020/12/22 10:18:09;;;;;;;1999.90;999.90;;;;;;;-7.72;81.79;102520.94;1795350;79;22219;-69
2020/12/22 10:20:37;;;;;;;1999.90;999.90;;;;;;;-7.69;81.12;102515.28;1800203;79;21564;-69
2020/12/22 10:23:04;;;;;;;1999.90;999.90;;;;;;;-7.71;81.09;102515.91;1797955;78;20974;-69
2020/12/22 10:25:33;;;;;;;1999.90;999.90;;;;;;;-7.68;81.08;102511.59;1804758;78;21445;-69
2020/12/22 10:28:00;;;;;;;1999.90;999.90;;;;;;;-7.68;80.86;102508.91;1809171;78;21529;-69
2020/12/22 10:30:29;;;;;;;1999.90;999.90;;;;;;;-7.61;81.02;102505.51;1810138;78;22250;-71
2020/12/22 10:32:57;;;;;;;1999.90;999.90;;;;;;;-7.58;80.52;102505.22;1805858;78;20986;-67
2020/12/22 10:35:25;;;;;;;1999.90;999.90;;;;;;;-7.57;80.95;102488.09;1807809;78;20978;-67
2020/12/22 10:37:53;;;;;;;1999.90;999.90;;;;;;;-7.49;81.21;102495.45;1808379;78;21659;-68
2020/12/22 10:40:21;;;;;;;1999.90;999.90;;;;;;;-7.39;81.01;102483.33;1804622;78;21090;-67
2020/12/22 10:42:48;;;;;;;1999.90;999.90;;;;;;;-7.31;80.59;102476.23;1802094;78;21415;-67
2020/12/22 10:45:17;;;;;;;1999.90;999.90;;;;;;;-7.27;80.17;102476.80;1809610;78;21559;-66
2020/12/22 10:47:45;;;;;;;1999.90;999.90;;;;;;;-7.25;79.85;102481.53;1803315;78;20952;-66
2020/12/22 10:50:13;;;;;;;1999.90;999.90;;;;;;;-7.26;79.53;102476.65;1804802;78;21550;-69
2020/12/22 10:52:41;;;;;;;1999.90;999.90;;;;;;;-7.28;79.73;102477.29;1798590;78;21569;-69
2020/12/22 10:55:09;;;;;;;1999.90;999.90;;;;;;;-7.29;79.63;102475.59;1809302;77;21380;-69
2020/12/22 10:57:37;;;;;;;1999.90;999.90;;;;;;;-7.29;79.58;102475.59;1806070;77;21390;-69
2020/12/22 11:00:06;;;;;;;1999.90;999.90;;;;;;;-7.28;79.71;102474.59;1805617;78;21015;-69
2020/12/22 11:02:35;;;;;;;1999.90;999.90;;;;;;;-7.30;79.64;102479.28;1793922;78;20968;-69
2020/12/22 11:05:04;;;;;;;1999.90;999.90;;;;;;;-7.29;79.32;102477.44;1808624;78;21517;-67
2020/12/22 11:07:40;;;;;;;1999.90;999.90;;;;;;;-7.29;79.15;102473.41;1818183;78;22318;-66
2020/12/22 11:10:06;;;;;;;1999.90;999.90;;;;;;;-7.28;79.33;102480.48;1803204;78;21371;-67
2020/12/22 11:12:34;;;;;;;1999.90;999.90;;;;;;;-7.32;78.89;102473.69;1802746;78;20982;-71
2020/12/22 11:22:50;;;;;;;1999.90;999.90;;;;;;;-7.23;78.96;102468.78;1754291;79;28225;-69
2020/12/22 11:25:18;;;;;;;1999.90;999.90;;;;;;;-7.32;78.79;102465.62;1714101;82;20997;-69
2020/12/22 11:27:46;;;;;;;1999.90;999.90;;;;;;;-7.34;78.67;102456.84;1702265;83;22205;-69
2020/12/22 11:30:14;;;;;;;1999.90;999.90;;;;;;;-7.36;78.47;102462.38;1704969;83;20957;-69
2020/12/22 11:32:42;;;;;;;1999.90;999.90;;;;;;;-7.39;78.47;102460.47;1699166;83;21092;-70
2020/12/22 11:35:10;;;;;;;1999.90;999.90;;;;;;;-7.42;78.66;102456.72;1705899;83;21511;-70
2020/12/22 11:37:38;;;;;;;1999.90;999.90;;;;;;;-7.47;78.71;102462.53;1700480;83;21100;-69
2020/12/22 11:40:06;;;;;;;1999.90;999.90;;;;;;;-7.49;79.09;102457.80;1703683;83;21440;-69
2020/12/22 11:42:35;;;;;;;1999.90;999.90;;;;;;;-7.47;79.38;102452.63;1704127;83;20985;-69
2020/12/22 11:45:06;;;;;;;1999.90;999.90;;;;;;;-7.40;79.56;102456.08;1708858;83;20946;-70
2020/12/22 11:47:42;;;;;;;1999.90;999.90;;;;;;;-7.29;79.34;102457.26;1886913;75;28646;-69
2020/12/22 11:50:10;;;;;;;1999.90;999.90;;;;;;;-7.29;79.02;102453.22;1851593;76;20941;-68
2020/12/22 11:52:37;;;;;;;1999.90;999.90;;;;;;;-7.24;79.05;102457.17;1851050;77;21355;-69
2020/12/22 11:55:05;;;;;;;1999.90;999.90;;;;;;;-7.21;78.97;102447.46;1851564;76;20988;-69
2020/12/22 11:57:33;;;;;;;1999.90;999.90;;;;;;;-7.20;78.43;102457.23;1853493;77;21542;-68
2020/12/22 12:00:05;;;;;;;1999.90;999.90;;;;;;;-7.21;78.44;102453.34;1849000;77;21522;-70
2020/12/22 12:02:33;;;;;;;1999.90;999.90;;;;;;;-7.20;78.28;102453.20;1853101;77;20988;-70
2020/12/22 12:05:00;;;;;;;1999.90;999.90;;;;;;;-7.21;78.16;102460.91;1852182;77;21796;-69
2020/12/22 12:07:28;;;;;;;1999.90;999.90;;;;;;;-7.23;78.50;102457.52;1851761;77;21115;-68
2020/12/22 12:09:57;;;;;;;1999.90;999.90;;;;;;;-7.19;78.80;102460.77;1789394;78;20980;-69
2020/12/22 12:12:24;;;;;;;1999.90;999.90;;;;;;;-7.15;78.69;102457.64;1804818;78;21016;-70
2020/12/22 12:14:52;;;;;;;1999.90;999.90;;;;;;;-7.12;78.54;102457.84;1806453;78;21479;-69
2020/12/22 12:17:20;;;;;;;1999.90;999.90;;;;;;;-7.09;78.47;102457.55;1785314;79;21371;-70
2020/12/22 12:19:48;;;;;;;1999.90;999.90;;;;;;;-7.05;78.21;102450.87;1800937;78;21056;-70
2020/12/22 12:22:16;;;;;;;1999.90;999.90;;;;;;;-7.02;78.09;102449.23;1808960;78;21016;-69
2020/12/22 12:24:44;;;;;;;1999.90;999.90;;;;;;;-7.00;77.75;102460.70;1786722;79;21143;-70
2020/12/22 12:27:13;;;;;;;1999.90;999.90;;;;;;;-7.00;77.48;102456.67;1809365;78;20941;-64
2020/12/22 12:29:40;;;;;;;1999.90;999.90;;;;;;;-6.99;77.60;102457.02;1784862;78;21256;-66
2020/12/22 12:32:08;;;;;;;1999.90;999.90;;;;;;;-7.01;77.10;102464.39;1803851;78;20985;-65
2020/12/22 12:34:36;;;;;;;1999.90;999.90;;;;;;;-7.05;77.32;102462.14;1786335;79;21079;-70
2020/12/22 12:37:04;;;;;;;1999.90;999.90;;;;;;;-7.05;77.46;102463.48;1805688;78;21064;-64
2020/12/22 12:39:32;;;;;;;1999.90;999.90;;;;;;;-7.11;76.91;102468.95;1786960;78;21112;-65
2020/12/22 12:42:01;;;;;;;1999.90;999.90;;;;;;;-7.21;76.97;102466.80;1810526;78;21939;-71
2020/12/22 12:44:29;;;;;;;1999.90;999.90;;;;;;;-7.26;77.38;102459.66;1779132;80;21126;-66
2020/12/22 12:46:56;;;;;;;1999.90;999.90;;;;;;;-7.27;77.44;102460.16;1809485;78;20945;-69
2020/12/22 12:49:24;;;;;;;1999.90;999.90;;;;;;;-7.30;77.39;102460.45;1793811;79;21042;-68
2020/12/22 12:51:52;;;;;;;1999.90;999.90;;;;;;;-7.33;77.51;102452.66;1777911;80;21581;-68
2020/12/22 12:54:20;;;;;;;1999.90;999.90;;;;;;;-7.33;77.51;102459.89;1808883;78;21378;-68
2020/12/22 12:56:48;;;;;;;1999.90;999.90;;;;;;;-7.34;77.62;102462.23;1806211;78;21139;-63
2020/12/22 12:59:16;;;;;;;1999.90;999.90;;;;;;;-7.37;77.85;102459.83;1811036;78;20989;-68
2020/12/22 13:01:44;;;;;;;1999.90;999.90;;;;;;;-7.35;77.89;102455.15;1800098;79;20942;-68
2020/12/22 13:04:12;;;;;;;1999.90;999.90;;;;;;;-7.39;77.78;102454.59;1791553;79;21087;-67
2020/12/22 13:06:45;;;;;;;1999.90;999.90;;;;;;;-7.43;77.78;102454.53;1785543;78;21375;-65
2020/12/22 13:12:00;;;;;;;1999.90;999.90;;;;;;;-7.36;78.04;102453.45;1840576;76;28275;-65
2020/12/22 13:14:28;;;;;;;1999.90;999.90;;;;;;;-7.34;77.91;102440.70;1829336;77;21241;-63
2020/12/22 13:16:55;;;;;;;1999.90;999.90;;;;;;;-7.35;77.67;102440.36;1851522;77;21181;-72
2020/12/22 13:19:23;;;;;;;1999.90;999.90;;;;;;;-7.46;77.62;102442.72;1841687;76;21036;-71
2020/12/22 13:21:51;;;;;;;1999.90;999.90;;;;;;;-7.57;77.91;102442.38;1842570;77;20996;-60
2020/12/22 13:24:19;;;;;;;1999.90;999.90;;;;;;;-7.67;77.92;102446.92;1838639;77;21542;-69
2020/12/22 13:26:47;;;;;;;1999.90;999.90;;;;;;;-7.81;78.15;102446.02;1843253;76;20953;-59
2020/12/22 13:29:15;;;;;;;1999.90;999.90;;;;;;;-7.91;78.37;102451.89;1844777;77;21174;-59
2020/12/22 13:31:48;;;;;;;1999.90;999.90;;;;;;;-8.02;78.55;102451.55;1840442;76;20961;-60
2020/12/22 13:34:15;;;;;;;1999.90;999.90;;;;;;;-8.04;78.96;102457.55;1838596;76;20921;-71
2020/12/22 13:36:43;;;;;;;1999.90;999.90;;;;;;;-8.04;79.20;102454.02;1814520;77;21048;-70
2020/12/22 13:39:13;;;;;;;1999.90;999.90;;;;;;;-8.04;79.37;102461.58;1838211;77;20944;-62
2020/12/22 13:42:29;;;;;;;1999.90;999.90;;;;;;;-8.05;79.42;102459.03;1841498;77;21356;-67
2020/12/22 13:44:57;;;;;;;1999.90;999.90;;;;;;;-8.10;79.37;102450.55;1849915;77;21201;-64
2020/12/22 13:47:25;;;;;;;1999.90;999.90;;;;;;;-8.24;79.30;102454.49;1846517;77;21555;-67
2020/12/22 13:49:53;;;;;;;1999.90;999.90;;;;;;;-8.35;79.46;102454.16;1840026;76;21413;-70
2020/12/22 13:52:21;;;;;;;1999.90;999.90;;;;;;;-8.39;79.74;102449.20;1839623;77;20992;-73
2020/12/22 13:54:49;;;;;;;1999.90;999.90;;;;;;;-8.42;79.84;102453.02;1842194;77;21361;-63
2020/12/22 13:57:17;;;;;;;1999.90;999.90;;;;;;;-8.44;79.90;102452.80;1839286;77;21552;-62
2020/12/22 14:07:02;;;;;;;1999.90;999.90;;;;;;;-8.50;80.06;102466.28;1802853;78;28657;-65
2020/12/22 14:09:30;;;;;;;1999.90;999.90;;;;;;;-8.62;80.04;102457.49;1769930;80;20969;-68
2020/12/22 14:11:58;;;;;;;1999.90;999.90;;;;;;;-8.69;79.98;102463.05;1746820;81;22231;-65
2020/12/22 14:14:26;;;;;;;1999.90;999.90;;;;;;;-8.75;80.12;102466.28;1734854;81;21057;-65
2020/12/22 14:16:53;;;;;;;1999.90;999.90;;;;;;;-8.80;80.26;102455.95;1719976;83;20989;-69
2020/12/22 14:27:15;;;;;;;1999.90;999.90;;;;;;;-8.99;80.57;102446.98;1811032;78;28166;-63
2020/12/22 14:29:42;;;;;;;1999.90;999.90;;;;;;;-9.11;80.64;102447.56;1774830;80;20933;-64
2020/12/22 14:32:11;;;;;;;1999.90;999.90;;;;;;;-9.20;80.71;102439.84;1714617;83;21357;-69
2020/12/22 14:34:39;;;;;;;1999.90;999.90;;;;;;;-9.27;80.85;102442.70;1728726;81;21017;-69
2020/12/22 14:37:09;;;;;;;1999.90;999.90;;;;;;;-9.36;80.91;102440.81;1715556;83;20977;-69
2020/12/22 14:39:37;;;;;;;1999.90;999.90;;;;;;;-9.38;81.21;102439.24;1724219;81;21558;-62
2020/12/22 14:42:05;;;;;;;1999.90;999.90;;;;;;;-9.41;81.16;102446.22;1699776;83;20930;-63
2020/12/22 14:44:33;;;;;;;1999.90;999.90;;;;;;;-9.45;81.16;102451.84;1722451;82;21554;-64
2020/12/22 14:47:00;;;;;;;1999.90;999.90;;;;;;;-9.50;81.13;102441.16;1719032;83;20957;-63
2020/12/22 14:49:28;;;;;;;1999.90;999.90;;;;;;;-9.55;81.30;102442.89;1718229;82;21562;-63
2020/12/22 14:51:56;;;;;;;1999.90;999.90;;;;;;;-9.64;81.21;102438.31;1733178;81;20969;-65
2020/12/22 14:54:26;;;;;;;1999.90;999.90;;;;;;;-9.74;81.39;102446.78;1729073;81;21037;-64
2020/12/22 14:56:59;;;;;;;1999.90;999.90;;;;;;;-9.83;81.70;102443.54;1728883;81;21370;-68
2020/12/22 14:59:24;;;;;;;1999.90;999.90;;;;;;;-9.88;81.95;102439.06;1730341;81;21033;-62
2020/12/22 15:01:56;;;;;;;1999.90;999.90;;;;;;;-9.94;82.09;102441.77;1709414;82;21155;-66
2020/12/22 15:04:24;;;;;;;1999.90;999.90;;;;;;;-9.98;82.18;102440.33;1737032;81;21171;-65
2020/12/22 15:13:03;;;;;;;1999.90;999.90;;;;;;;-10.10;82.54;102431.49;1878935;75;27327;-65
2020/12/22 15:15:32;;;;;;;1999.90;999.90;;;;;;;-10.21;82.68;102432.91;1757297;80;20948;-64
2020/12/22 15:18:00;;;;;;;1999.90;999.90;;;;;;;-10.27;82.84;102427.22;1762021;80;21530;-61
2020/12/22 15:20:28;;;;;;;1999.90;999.90;;;;;;;-10.32;82.97;102431.61;1776900;80;21541;-65
2020/12/22 15:22:56;;;;;;;1999.90;999.90;;;;;;;-10.34;83.16;102432.23;1778764;80;20976;-62
2020/12/22 15:25:23;;;;;;;1999.90;999.90;;;;;;;-10.34;83.31;102426.02;1748163;80;20961;-66
2020/12/22 15:27:53;;;;;;;1999.90;999.90;;;;;;;-10.32;83.38;102426.26;1754961;80;21138;-66
2020/12/22 15:30:21;;;;;;;1999.90;999.90;;;;;;;-10.32;83.30;102428.94;1758302;80;21379;-61
2020/12/22 15:32:49;;;;;;;1999.90;999.90;;;;;;;-10.32;83.43;102426.26;1756908;80;21017;-68
2020/12/22 15:35:17;;;;;;;1999.90;999.90;;;;;;;-10.27;83.59;102424.54;1749387;80;20988;-67
2020/12/22 15:37:48;;;;;;;1999.90;999.90;;;;;;;-10.25;83.60;102423.44;1752103;80;21574;-62
2020/12/22 15:40:16;;;;;;;1999.90;999.90;;;;;;;-10.20;83.82;102423.90;1758337;80;21088;-66
2020/12/22 15:42:47;;;;;;;1999.90;999.90;;;;;;;-10.14;83.91;102424.69;1753946;80;21337;-67
2020/12/22 15:45:15;;;;;;;1999.90;999.90;;;;;;;-10.12;83.73;102420.55;1755593;80;21131;-69
2020/12/22 15:47:43;;;;;;;1999.90;999.90;;;;;;;-10.09;83.81;102417.61;1758813;80;20982;-67
2020/12/22 15:50:11;;;;;;;1999.90;999.90;;;;;;;-10.05;83.89;102410.17;1749179;80;21127;-66
2020/12/22 15:52:39;;;;;;;1999.90;999.90;;;;;;;-10.01;83.93;102411.61;1755189;80;21111;-66
2020/12/22 15:55:09;;;;;;;1999.90;999.90;;;;;;;-9.98;84.04;102408.19;1749122;80;21370;-64
2020/12/22 15:57:39;;;;;;;1999.90;999.90;;;;;;;-9.95;84.07;102398.55;1774441;80;20996;-63
2020/12/22 16:00:09;;;;;;;1999.90;999.90;;;;;;;-9.97;83.75;102407.20;1770152;79;20992;-65
2020/12/22 16:05:21;;;;;;;1999.90;999.90;;;;;;;-9.95;83.86;102403.05;1877706;75;28797;-65
2020/12/22 16:07:49;;;;;;;1999.90;999.90;;;;;;;-9.97;83.84;102411.71;1839757;77;20980;-65
2020/12/22 16:10:21;;;;;;;1999.90;999.90;;;;;;;-9.99;83.81;102407.83;1783184;78;21348;-64
2020/12/22 16:12:48;;;;;;;1999.90;999.90;;;;;;;-9.95;84.01;102400.38;1801004;78;21008;-66
2020/12/22 16:15:16;;;;;;;1999.90;999.90;;;;;;;-9.92;83.97;102398.78;1807371;78;20996;-63
2020/12/22 16:17:43;;;;;;;1999.90;999.90;;;;;;;-9.88;84.13;102401.55;1804607;78;21022;-64
2020/12/22 16:20:11;;;;;;;1999.90;999.90;;;;;;;-9.81;84.26;102405.41;1781866;78;20949;-61
2020/12/22 16:22:39;;;;;;;1999.90;999.90;;;;;;;-9.81;84.05;102401.39;1805977;78;21365;-65
2020/12/22 16:25:09;;;;;;;1999.90;999.90;;;;;;;-9.86;83.92;102399.11;1796998;78;21554;-64
2020/12/22 16:27:37;;;;;;;1999.90;999.90;;;;;;;-9.89;83.99;102395.84;1799644;78;20973;-72
2020/12/22 16:30:06;;;;;;;1999.90;999.90;;;;;;;-9.89;83.99;102386.46;1800617;78;20980;-70
2020/12/22 16:32:34;;;;;;;1999.90;999.90;;;;;;;-9.92;84.01;102378.20;1773193;80;21124;-62
2020/12/22 16:35:02;;;;;;;1999.90;999.90;;;;;;;-9.94;84.00;102377.48;1810629;78;21345;-67
2020/12/22 16:37:30;;;;;;;1999.90;999.90;;;;;;;-9.96;84.11;102375.42;1804292;78;21107;-62
2020/12/22 16:39:58;;;;;;;1999.90;999.90;;;;;;;-9.99;84.04;102374.83;1801729;78;20953;-62
2020/12/22 16:42:26;;;;;;;1999.90;999.90;;;;;;;-9.99;84.06;102374.83;1812948;78;21103;-62
2020/12/22 16:44:57;;;;;;;1999.90;999.90;;;;;;;-10.00;84.13;102370.45;1784899;79;20962;-67
2020/12/22 16:47:25;;;;;;;1999.90;999.90;;;;;;;-10.01;84.26;102371.44;1798159;78;21349;-67
2020/12/22 16:49:54;;;;;;;1999.90;999.90;;;;;;;-10.02;84.41;102369.73;1788886;79;21119;-67
2020/12/22 16:52:22;;;;;;;1999.90;999.90;;;;;;;-10.02;84.49;102373.75;1780351;80;21115;-67
2020/12/22 16:54:50;;;;;;;1999.90;999.90;;;;;;;-10.01;84.59;102370.09;1807726;78;20965;-67
2020/12/22 16:57:19;;;;;;;1999.90;999.90;;;;;;;-9.98;84.62;102366.67;1801025;78;21013;-68
2020/12/22 16:59:47;;;;;;;1999.90;999.90;;;;;;;-9.95;84.77;102360.20;1791757;78;21191;-63
2020/12/22 17:02:16;;;;;;;1999.90;999.90;;;;;;;-9.89;84.85;102351.63;1762891;80;20975;-69
2020/12/22 17:04:44;;;;;;;1999.90;999.90;;;;;;;-9.84;84.75;102353.43;1787052;78;21135;-62
2020/12/22 17:07:12;;;;;;;1999.90;999.90;;;;;;;-9.83;84.68;102353.79;1788746;79;21557;-60
2020/12/22 17:09:41;;;;;;;1999.90;999.90;;;;;;;-9.82;84.67;102354.14;1777845;78;21657;-61
2020/12/22 17:12:11;;;;;;;1999.90;999.90;;;;;;;-9.79;84.82;102356.56;1789604;79;21140;-61
2020/12/22 17:14:40;;;;;;;1999.90;999.90;;;;;;;-9.73;84.88;102359.20;1760825;78;21867;-66
2020/12/22 17:17:08;;;;;;;1999.90;999.90;;;;;;;-9.66;84.92;102357.20;1791137;79;20989;-66
2020/12/22 17:19:38;;;;;;;1999.90;999.90;;;;;;;-9.60;84.83;102354.48;1783135;78;20993;-67
2020/12/22 17:22:07;;;;;;;1999.90;999.90;;;;;;;-9.57;84.67;102351.53;1788870;79;21095;-67
2020/12/22 17:24:35;;;;;;;1999.90;999.90;;;;;;;-9.54;84.53;102347.24;1792619;78;21298;-67
2020/12/22 17:27:04;;;;;;;1999.90;999.90;;;;;;;-9.51;84.40;102356.36;1787353;79;21036;-67
2020/12/22 17:29:34;;;;;;;1999.90;999.90;;;;;;;-9.50;84.26;102354.03;1784183;78;21164;-67
2020/12/22 17:32:07;;;;;;;1999.90;999.90;;;;;;;-9.50;84.14;102351.35;1786077;79;21001;-68
2020/12/22 17:34:32;;;;;;;1999.90;999.90;;;;;;;-9.51;84.09;102349.16;1792391;78;20985;-66
2020/12/22 17:37:01;;;;;;;1999.90;999.90;;;;;;;-9.50;84.20;102349.52;1786705;80;21492;-66
2020/12/22 17:42:53;;;;;;;1999.90;999.90;;;;;;;-9.47;84.26;102344.38;1873078;75;27351;-65
2020/12/22 17:45:22;;;;;;;1999.90;999.90;;;;;;;-9.57;84.26;102345.67;1806170;77;20941;-67
2020/12/22 17:47:50;;;;;;;1999.90;999.90;;;;;;;-9.60;84.36;102346.44;1802389;78;21352;-66
2020/12/22 17:50:18;;;;;;;1999.90;999.90;;;;;;;-9.59;84.44;102344.96;1802615;78;20994;-65
2020/12/22 17:52:46;;;;;;;1999.90;999.90;;;;;;;-9.54;84.59;102345.41;1801084;78;21017;-66
2020/12/22 17:55:14;;;;;;;1999.90;999.90;;;;;;;-9.48;84.63;102346.21;1807348;78;20937;-63
2020/12/22 17:57:42;;;;;;;1999.90;999.90;;;;;;;-9.44;84.59;102341.43;1804673;78;20937;-63
2020/12/22 18:00:11;;;;;;;1999.90;999.90;;;;;;;-9.38;84.57;102338.21;1803198;78;21302;-59
2020/12/22 18:06:59;;;;;;;1999.90;999.90;;;;;;;-9.26;84.51;102333.59;1798740;78;28197;-66
2020/12/22 18:09:28;;;;;;;1999.90;999.90;;;;;;;-9.28;84.42;102337.75;1766428;80;20993;-65
2020/12/22 18:11:59;;;;;;;1999.90;999.90;;;;;;;-9.27;84.29;102330.56;1757412;81;22110;-64
2020/12/22 18:14:28;;;;;;;1999.90;999.90;;;;;;;-9.26;84.22;102333.59;1756202;81;21918;-63
2020/12/22 18:16:57;;;;;;;1999.90;999.90;;;;;;;-9.27;84.11;102327.88;1757285;81;21005;-61
2020/12/22 18:19:25;;;;;;;1999.90;999.90;;;;;;;-9.26;84.12;102325.55;1755848;80;21001;-62
2020/12/22 18:21:53;;;;;;;1999.90;999.90;;;;;;;-9.24;84.16;102319.06;1758066;81;21538;-61
2020/12/22 18:24:21;;;;;;;1999.90;999.90;;;;;;;-9.21;84.08;102323.30;1754954;81;21366;-62
2020/12/22 18:26:49;;;;;;;1999.90;999.90;;;;;;;-9.22;84.03;102319.78;1758380;81;21048;-67
2020/12/22 18:29:17;;;;;;;1999.90;999.90;;;;;;;-9.25;84.12;102322.73;1750472;81;20997;-68
2020/12/22 18:31:45;;;;;;;1999.90;999.90;;;;;;;-9.24;84.26;102327.60;1755503;81;21119;-66
2020/12/22 18:34:13;;;;;;;1999.90;999.90;;;;;;;-9.19;84.37;102327.55;1756357;81;21162;-67
2020/12/22 18:36:47;;;;;;;1999.90;999.90;;;;;;;-9.17;84.24;102328.27;1751774;81;21567;-72
2020/12/22 18:39:15;;;;;;;1999.90;999.90;;;;;;;-9.19;84.11;102324.02;1748984;81;21155;-71
2020/12/22 18:41:43;;;;;;;1999.90;999.90;;;;;;;-9.17;84.16;102324.23;1757326;81;21579;-71